createdAt,value
2019-03-25T00:00:09.125Z,3.50
2019-03-25T00:01:09.098Z,3.30
2019-03-25T00:02:09.113Z,3.50
2019-03-25T00:03:09.081Z,3.40
2019-03-25T00:04:09.066Z,3.20
2019-03-25T00:05:09.088Z,3.70
2019-03-25T00:06:09.040Z,3.30
2019-03-25T00:07:09.037Z,3.40
2019-03-25T00:08:09.019Z,3.50
2019-03-25T00:09:09.006Z,3.50
2019-03-25T00:10:09.039Z,3.00
2019-03-25T00:11:08.991Z,3.20
2019-03-25T00:12:08.986Z,3.50
2019-03-25T00:13:08.972Z,3.20
2019-03-25T00:14:08.955Z,3.10
2019-03-25T00:15:08.940Z,3.60
2019-03-25T00:16:08.954Z,3.20
2019-03-25T00:17:08.927Z,3.50
2019-03-25T00:18:08.902Z,2.80
2019-03-25T00:19:08.899Z,3.00
2019-03-25T00:20:08.886Z,2.90
2019-03-25T00:21:08.901Z,3.40
2019-03-25T00:22:08.870Z,3.00
2019-03-25T00:23:08.860Z,3.40
2019-03-25T00:24:08.849Z,3.90
2019-03-25T00:25:08.864Z,3.40
2019-03-25T00:26:08.818Z,3.20
2019-03-25T00:27:08.831Z,2.90
2019-03-25T00:28:08.805Z,3.20
2019-03-25T00:29:08.788Z,3.10
2019-03-25T00:30:08.789Z,2.80
2019-03-25T00:31:08.775Z,3.20
2019-03-25T00:32:08.783Z,3.20
2019-03-25T00:33:08.742Z,3.00
2019-03-25T00:34:08.746Z,3.00
2019-03-25T00:35:08.735Z,4.20
2019-03-25T00:36:08.716Z,2.60
2019-03-25T00:37:08.709Z,3.10
2019-03-25T00:38:08.716Z,2.60
2019-03-25T00:39:08.694Z,3.30
2019-03-25T00:40:08.666Z,2.80
2019-03-25T00:41:08.651Z,2.60
2019-03-25T00:42:08.681Z,2.70
2019-03-25T00:43:08.645Z,2.80
2019-03-25T00:44:08.651Z,2.60
2019-03-25T00:45:08.621Z,2.90
2019-03-25T00:46:08.594Z,2.80
2019-03-25T00:47:08.614Z,3.00
2019-03-25T00:48:08.590Z,3.20
2019-03-25T00:49:08.602Z,3.10
2019-03-25T00:50:08.559Z,3.20
2019-03-25T00:51:08.555Z,2.60
2019-03-25T00:52:08.534Z,2.70
2019-03-25T00:53:08.539Z,3.10
2019-03-25T00:54:08.523Z,2.90
2019-03-25T00:55:08.526Z,2.60
2019-03-25T00:56:08.502Z,2.90
2019-03-25T00:57:08.494Z,2.60
2019-03-25T00:58:08.488Z,3.10
2019-03-25T00:59:08.459Z,3.10
2019-03-25T01:00:08.451Z,2.80
2019-03-25T01:01:08.459Z,2.70
2019-03-25T01:02:08.439Z,2.80
2019-03-25T01:03:08.431Z,2.50
2019-03-25T01:04:08.395Z,2.70
2019-03-25T01:05:08.404Z,2.70
2019-03-25T01:06:08.422Z,3.40
2019-03-25T01:07:08.382Z,3.10
2019-03-25T01:08:08.371Z,2.60
2019-03-25T01:09:08.375Z,2.80
2019-03-25T01:10:08.343Z,3.30
2019-03-25T01:11:08.328Z,2.60
2019-03-25T01:12:08.334Z,2.90
2019-03-25T01:13:08.299Z,3.00
2019-03-25T01:14:08.307Z,2.90
2019-03-25T01:15:08.294Z,2.50
2019-03-25T01:16:08.285Z,3.20
2019-03-25T01:17:08.301Z,3.00
2019-03-25T01:18:16.845Z,2.90
2019-03-25T01:19:09.238Z,3.20
2019-03-25T01:20:08.275Z,2.90
2019-03-25T01:21:08.222Z,2.80
2019-03-25T01:22:08.202Z,3.00
2019-03-25T01:23:08.228Z,3.20
2019-03-25T01:24:08.181Z,2.70
2019-03-25T01:25:08.170Z,2.50
2019-03-25T01:26:08.175Z,2.60
2019-03-25T01:27:08.162Z,2.50
2019-03-25T01:28:08.158Z,2.70
2019-03-25T01:29:08.162Z,2.80
2019-03-25T01:30:08.118Z,2.30
2019-03-25T01:31:08.102Z,2.90
2019-03-25T01:32:08.102Z,2.50
2019-03-25T01:33:08.086Z,2.50
2019-03-25T01:34:08.114Z,2.60
2019-03-25T01:35:08.070Z,2.90
2019-03-25T01:36:08.057Z,3.10
2019-03-25T01:37:08.049Z,3.00
2019-03-25T01:38:08.037Z,3.00
2019-03-25T01:39:08.028Z,2.60
2019-03-25T01:40:08.046Z,2.70
2019-03-25T01:41:08.019Z,2.50
2019-03-25T01:42:07.991Z,2.80
2019-03-25T01:43:07.974Z,2.60
2019-03-25T01:44:07.964Z,2.70
2019-03-25T01:45:07.948Z,2.70
2019-03-25T01:46:07.975Z,3.00
2019-03-25T01:47:07.943Z,2.90
2019-03-25T01:48:07.931Z,2.80
2019-03-25T01:49:07.914Z,2.30
2019-03-25T01:50:07.909Z,2.70
2019-03-25T01:51:07.911Z,2.60
2019-03-25T01:52:07.892Z,3.10
2019-03-25T01:53:07.901Z,3.10
2019-03-25T01:54:07.856Z,2.70
2019-03-25T01:55:13.314Z,2.80
2019-03-25T01:56:08.840Z,2.60
2019-03-25T01:57:07.851Z,2.20
2019-03-25T01:58:07.817Z,2.80
2019-03-25T01:59:07.807Z,2.90
2019-03-25T02:00:07.823Z,2.70
2019-03-25T02:01:07.789Z,2.60
2019-03-25T02:02:07.766Z,2.50
2019-03-25T02:03:07.794Z,2.30
2019-03-25T02:04:07.751Z,2.30
2019-03-25T02:05:07.732Z,2.90
2019-03-25T02:06:07.736Z,2.90
2019-03-25T02:07:07.734Z,2.90
2019-03-25T02:08:07.704Z,2.80
2019-03-25T02:09:07.714Z,3.60
2019-03-25T02:10:07.685Z,2.70
2019-03-25T02:11:07.670Z,2.70
2019-03-25T02:12:07.700Z,2.50
2019-03-25T02:13:07.654Z,2.50
2019-03-25T02:14:07.648Z,3.00
2019-03-25T02:15:07.626Z,2.70
2019-03-25T02:16:07.643Z,3.00
2019-03-25T02:17:07.613Z,2.60
2019-03-25T02:18:07.602Z,2.80
2019-03-25T02:19:07.596Z,2.40
2019-03-25T02:20:07.587Z,2.90
2019-03-25T02:21:07.596Z,2.80
2019-03-25T02:22:07.542Z,3.00
2019-03-25T02:23:07.766Z,2.60
2019-03-25T02:24:07.538Z,3.00
2019-03-25T02:25:07.517Z,2.40
2019-03-25T02:26:07.519Z,3.40
2019-03-25T02:27:07.522Z,2.80
2019-03-25T02:28:07.484Z,2.70
2019-03-25T02:29:07.472Z,2.90
2019-03-25T02:30:07.481Z,2.50
2019-03-25T02:31:07.465Z,3.50
2019-03-25T02:32:07.446Z,2.80
2019-03-25T02:33:07.456Z,2.50
2019-03-25T02:34:07.419Z,2.50
2019-03-25T02:35:07.433Z,3.40
2019-03-25T02:36:07.414Z,3.10
2019-03-25T02:37:07.392Z,3.40
2019-03-25T02:38:07.406Z,2.90
2019-03-25T02:39:07.372Z,2.70
2019-03-25T02:40:07.350Z,3.20
2019-03-25T02:41:07.339Z,2.60
2019-03-25T02:42:07.338Z,3.40
2019-03-25T02:43:07.340Z,2.90
2019-03-25T02:44:07.350Z,3.10
2019-03-25T02:45:07.304Z,2.70
2019-03-25T02:46:07.295Z,3.00
2019-03-25T02:47:07.282Z,3.10
2019-03-25T02:48:07.263Z,2.90
2019-03-25T02:49:07.268Z,2.80
2019-03-25T02:50:07.255Z,2.70
2019-03-25T02:51:07.275Z,2.50
2019-03-25T02:52:07.233Z,2.60
2019-03-25T02:53:07.214Z,2.80
2019-03-25T02:54:07.204Z,2.50
2019-03-25T02:55:07.192Z,2.50
2019-03-25T02:56:07.181Z,2.50
2019-03-25T02:57:07.200Z,3.00
2019-03-25T02:58:07.159Z,2.70
2019-03-25T02:59:07.138Z,3.10
2019-03-25T03:00:07.147Z,2.50
2019-03-25T03:01:07.126Z,2.80
2019-03-25T03:02:07.140Z,2.60
2019-03-25T03:03:07.112Z,3.20
2019-03-25T03:04:07.114Z,2.30
2019-03-25T03:05:07.107Z,2.50
2019-03-25T03:06:07.065Z,2.80
2019-03-25T03:07:07.053Z,2.50
2019-03-25T03:08:07.082Z,2.80
2019-03-25T03:09:07.045Z,3.00
2019-03-25T03:10:07.029Z,2.90
2019-03-25T03:11:07.049Z,2.90
2019-03-25T03:12:07.003Z,2.10
2019-03-25T03:13:06.986Z,2.80
2019-03-25T03:14:07.010Z,3.00
2019-03-25T03:15:06.986Z,2.60
2019-03-25T03:16:06.963Z,2.80
2019-03-25T03:17:06.959Z,2.80
2019-03-25T03:18:06.935Z,2.60
2019-03-25T03:19:06.924Z,2.70
2019-03-25T03:20:06.955Z,2.90
2019-03-25T03:21:06.906Z,2.30
2019-03-25T03:22:06.924Z,2.60
2019-03-25T03:23:06.888Z,2.60
2019-03-25T03:24:06.897Z,2.60
2019-03-25T03:25:06.874Z,2.50
2019-03-25T03:26:06.877Z,2.20
2019-03-25T03:27:06.834Z,3.40
2019-03-25T03:28:06.849Z,2.60
2019-03-25T03:29:06.822Z,3.00
2019-03-25T03:30:06.816Z,2.80
2019-03-25T03:31:06.842Z,2.90
2019-03-25T03:32:06.840Z,2.10
2019-03-25T03:33:06.773Z,2.70
2019-03-25T03:34:06.840Z,2.50
2019-03-25T03:35:06.778Z,2.80
2019-03-25T03:36:06.735Z,2.30
2019-03-25T03:37:06.758Z,2.50
2019-03-25T03:38:06.748Z,2.70
2019-03-25T03:39:06.724Z,2.90
2019-03-25T03:40:06.715Z,2.60
2019-03-25T03:41:06.694Z,2.80
2019-03-25T03:42:06.677Z,2.60
2019-03-25T03:43:06.691Z,2.30
2019-03-25T03:44:06.662Z,2.40
2019-03-25T03:45:06.659Z,2.50
2019-03-25T03:46:06.629Z,2.50
2019-03-25T03:47:06.614Z,2.60
2019-03-25T03:48:06.624Z,2.30
2019-03-25T03:49:06.595Z,2.50
2019-03-25T03:50:06.613Z,2.40
2019-03-25T03:51:06.576Z,2.00
2019-03-25T03:52:06.582Z,2.50
2019-03-25T03:53:06.559Z,2.90
2019-03-25T03:54:06.559Z,2.90
2019-03-25T03:55:06.563Z,2.70
2019-03-25T03:56:13.631Z,2.70
2019-03-25T03:57:07.514Z,2.50
2019-03-25T03:58:06.503Z,2.50
2019-03-25T03:59:06.528Z,3.00
2019-03-25T04:00:06.473Z,2.50
2019-03-25T04:01:06.469Z,2.60
2019-03-25T04:02:06.461Z,2.70
2019-03-25T04:03:06.456Z,2.50
2019-03-25T04:04:06.442Z,2.70
2019-03-25T04:05:06.447Z,2.30
2019-03-25T04:06:06.406Z,2.40
2019-03-25T04:07:06.392Z,2.70
2019-03-25T04:08:06.389Z,2.50
2019-03-25T04:09:06.386Z,2.60
2019-03-25T04:10:06.404Z,2.90
2019-03-25T04:11:06.369Z,2.40
2019-03-25T04:12:06.356Z,2.50
2019-03-25T04:13:06.336Z,2.20
2019-03-25T04:14:06.318Z,2.20
2019-03-25T04:15:06.331Z,2.30
2019-03-25T04:16:06.301Z,3.00
2019-03-25T04:17:06.293Z,2.70
2019-03-25T04:18:06.316Z,2.70
2019-03-25T04:19:06.269Z,2.70
2019-03-25T04:20:06.269Z,2.50
2019-03-25T04:21:06.265Z,2.30
2019-03-25T04:22:06.237Z,2.60
2019-03-25T04:23:06.232Z,2.70
2019-03-25T04:24:06.242Z,2.30
2019-03-25T04:25:06.218Z,2.10
2019-03-25T04:26:06.190Z,2.60
2019-03-25T04:27:06.180Z,2.50
2019-03-25T04:28:06.174Z,2.30
2019-03-25T04:29:06.169Z,2.40
2019-03-25T04:30:06.156Z,2.80
2019-03-25T04:31:06.155Z,3.10
2019-03-25T04:32:06.412Z,3.10
2019-03-25T04:33:06.120Z,3.30
2019-03-25T04:34:06.104Z,2.80
2019-03-25T04:35:06.134Z,2.70
2019-03-25T04:36:06.085Z,2.90
2019-03-25T04:37:06.081Z,2.50
2019-03-25T04:38:06.081Z,2.70
2019-03-25T04:39:06.046Z,2.70
2019-03-25T04:40:06.037Z,2.70
2019-03-25T04:41:06.025Z,3.20
2019-03-25T04:42:06.049Z,3.00
2019-03-25T04:43:06.024Z,2.50
2019-03-25T04:44:06.005Z,2.90
2019-03-25T04:45:05.990Z,2.50
2019-03-25T04:46:05.965Z,2.40
2019-03-25T04:47:05.961Z,3.20
2019-03-25T04:48:05.990Z,2.60
2019-03-25T04:49:05.944Z,2.60
2019-03-25T04:50:06.726Z,2.90
2019-03-25T04:51:05.908Z,2.80
2019-03-25T04:52:05.906Z,3.00
2019-03-25T04:53:05.891Z,2.60
2019-03-25T04:54:05.915Z,2.90
2019-03-25T04:55:05.881Z,3.10
2019-03-25T04:56:05.877Z,2.80
2019-03-25T04:57:05.855Z,2.80
2019-03-25T04:58:05.831Z,3.30
2019-03-25T04:59:05.843Z,2.70
2019-03-25T05:00:05.811Z,2.70
2019-03-25T05:01:05.801Z,3.10
2019-03-25T05:02:05.815Z,2.50
2019-03-25T05:03:05.792Z,3.20
2019-03-25T05:04:05.814Z,3.10
2019-03-25T05:05:05.776Z,3.00
2019-03-25T05:06:05.759Z,2.70
2019-03-25T05:07:05.759Z,2.80
2019-03-25T05:08:05.734Z,3.00
2019-03-25T05:09:05.730Z,2.50
2019-03-25T05:10:05.730Z,2.70
2019-03-25T05:11:05.695Z,2.70
2019-03-25T05:12:05.686Z,2.80
2019-03-25T05:13:05.690Z,2.60
2019-03-25T05:14:05.662Z,3.10
2019-03-25T05:15:05.659Z,2.60
2019-03-25T05:16:05.680Z,2.90
2019-03-25T05:17:05.660Z,3.10
2019-03-25T05:18:05.615Z,3.20
2019-03-25T05:19:05.618Z,3.40
2019-03-25T05:20:05.604Z,3.00
2019-03-25T05:21:05.602Z,3.90
2019-03-25T05:22:05.598Z,3.00
2019-03-25T05:23:05.571Z,3.20
2019-03-25T05:24:05.552Z,3.20
2019-03-25T05:25:05.538Z,3.00
2019-03-25T05:26:05.554Z,3.70
2019-03-25T05:27:05.537Z,3.30
2019-03-25T05:28:05.514Z,3.40
2019-03-25T05:29:05.498Z,3.10
2019-03-25T05:30:05.512Z,3.40
2019-03-25T05:31:05.479Z,3.40
2019-03-25T05:32:05.481Z,3.60
2019-03-25T05:33:05.456Z,3.30
2019-03-25T05:34:05.455Z,3.00
2019-03-25T05:35:05.440Z,3.30
2019-03-25T05:36:05.422Z,3.00
2019-03-25T05:37:05.432Z,2.90
2019-03-25T05:38:05.401Z,2.90
2019-03-25T05:39:05.428Z,3.60
2019-03-25T05:40:05.396Z,3.10
2019-03-25T05:41:05.369Z,2.90
2019-03-25T05:42:05.383Z,3.40
2019-03-25T05:43:07.059Z,3.30
2019-03-25T05:44:05.325Z,3.50
2019-03-25T05:45:05.349Z,3.30
2019-03-25T05:46:05.315Z,3.20
2019-03-25T05:47:05.311Z,3.50
2019-03-25T05:48:05.294Z,3.00
2019-03-25T05:49:05.288Z,3.20
2019-03-25T05:50:05.288Z,3.70
2019-03-25T05:51:05.256Z,3.50
2019-03-25T05:52:05.257Z,3.20
2019-03-25T05:53:05.258Z,3.20
2019-03-25T05:54:05.222Z,3.50
2019-03-25T05:55:05.218Z,3.30
2019-03-25T05:56:05.241Z,3.30
2019-03-25T05:57:05.198Z,3.50
2019-03-25T05:58:05.201Z,2.90
2019-03-25T05:59:05.192Z,2.70
2019-03-25T06:00:05.180Z,2.90
2019-03-25T06:01:05.168Z,3.00
2019-03-25T06:02:05.165Z,3.10
2019-03-25T06:03:05.128Z,3.50
2019-03-25T06:04:05.121Z,3.00
2019-03-25T06:05:05.105Z,3.30
2019-03-25T06:06:05.094Z,2.90
2019-03-25T06:07:05.120Z,3.80
2019-03-25T06:08:05.067Z,3.30
2019-03-25T06:09:05.051Z,3.30
2019-03-25T06:10:05.053Z,4.00
2019-03-25T06:11:05.043Z,3.60
2019-03-25T06:12:05.032Z,3.40
2019-03-25T06:13:05.036Z,3.40
2019-03-25T06:14:05.022Z,3.60
2019-03-25T06:15:04.996Z,3.20
2019-03-25T06:16:04.987Z,3.10
2019-03-25T06:17:04.969Z,3.10
2019-03-25T06:18:04.990Z,3.40
2019-03-25T06:19:04.959Z,3.70
2019-03-25T06:20:04.953Z,3.50
2019-03-25T06:21:04.958Z,2.90
2019-03-25T06:22:04.929Z,2.60
2019-03-25T06:23:04.908Z,3.20
2019-03-25T06:24:04.904Z,3.00
2019-03-25T06:25:04.910Z,3.30
2019-03-25T06:26:04.882Z,3.10
2019-03-25T06:27:13.732Z,2.90
2019-03-25T06:28:05.848Z,2.70
2019-03-25T06:29:04.854Z,3.00
2019-03-25T06:30:04.844Z,3.60
2019-03-25T06:31:04.829Z,2.50
2019-03-25T06:32:04.842Z,2.90
2019-03-25T06:33:12.345Z,3.10
2019-03-25T06:34:05.782Z,3.00
2019-03-25T06:35:04.773Z,3.30
2019-03-25T06:36:04.757Z,3.50
2019-03-25T06:37:04.750Z,3.00
2019-03-25T06:38:04.796Z,2.80
2019-03-25T06:39:04.747Z,2.40
2019-03-25T06:40:04.716Z,2.70
2019-03-25T06:41:04.712Z,2.80
2019-03-25T06:42:04.711Z,2.80
2019-03-25T06:43:04.716Z,2.70
2019-03-25T06:44:04.713Z,2.30
2019-03-25T06:45:04.674Z,2.70
2019-03-25T06:46:04.658Z,2.40
2019-03-25T06:47:04.646Z,1.60
2019-03-25T06:48:04.629Z,3.00
2019-03-25T06:49:04.616Z,2.50
2019-03-25T06:50:04.643Z,2.50
2019-03-25T06:51:04.609Z,3.60
2019-03-25T06:52:04.602Z,3.50
2019-03-25T06:53:04.593Z,3.80
2019-03-25T06:54:04.577Z,2.80
2019-03-25T06:55:04.559Z,3.10
2019-03-25T06:56:04.657Z,3.50
2019-03-25T06:57:04.543Z,2.70
2019-03-25T06:58:04.523Z,3.00
2019-03-25T06:59:04.529Z,3.20
2019-03-25T07:00:04.532Z,3.00
2019-03-25T07:01:04.496Z,2.80
2019-03-25T07:02:04.505Z,2.90
2019-03-25T07:03:04.477Z,2.20
2019-03-25T07:04:04.469Z,3.20
2019-03-25T07:05:04.458Z,2.80
2019-03-25T07:06:04.449Z,2.60
2019-03-25T07:07:04.426Z,3.00
2019-03-25T07:08:04.418Z,3.60
2019-03-25T07:09:04.426Z,2.70
2019-03-25T07:10:04.402Z,3.80
2019-03-25T07:11:04.405Z,3.40
2019-03-25T07:12:04.367Z,2.40
2019-03-25T07:13:04.367Z,2.60
2019-03-25T07:14:04.439Z,2.50
2019-03-25T07:15:04.397Z,2.80
2019-03-25T07:16:04.352Z,3.00
2019-03-25T07:17:04.325Z,2.70
2019-03-25T07:18:04.306Z,2.90
2019-03-25T07:19:04.300Z,2.80
2019-03-25T07:20:04.285Z,3.60
2019-03-25T07:21:04.293Z,3.20
2019-03-25T07:22:04.290Z,3.00
2019-03-25T07:23:04.264Z,3.40
2019-03-25T07:24:04.285Z,3.10
2019-03-25T07:25:04.241Z,3.80
2019-03-25T07:26:04.249Z,2.60
2019-03-25T07:27:04.214Z,3.50
2019-03-25T07:28:04.213Z,3.40
2019-03-25T07:29:04.219Z,4.00
2019-03-25T07:30:04.225Z,3.50
2019-03-25T07:31:04.160Z,3.10
2019-03-25T07:32:04.171Z,3.70
2019-03-25T07:33:05.190Z,3.20
2019-03-25T07:34:04.248Z,2.90
2019-03-25T07:35:04.251Z,3.00
2019-03-25T07:36:04.804Z,3.10
2019-03-25T07:37:04.108Z,3.10
2019-03-25T07:38:04.816Z,2.90
2019-03-25T07:39:04.726Z,3.40
2019-03-25T07:40:04.078Z,3.40
2019-03-25T07:41:04.077Z,2.60
2019-03-25T07:42:04.051Z,2.50
2019-03-25T07:43:04.071Z,3.80
2019-03-25T07:44:04.026Z,3.00
2019-03-25T07:45:04.014Z,2.60
2019-03-25T07:46:04.008Z,2.80
2019-03-25T07:47:04.005Z,3.10
2019-03-25T07:48:04.315Z,2.70
2019-03-25T07:49:03.983Z,3.30
2019-03-25T07:50:03.958Z,2.90
2019-03-25T07:51:03.970Z,2.90
2019-03-25T07:52:03.930Z,3.20
2019-03-25T07:53:03.922Z,2.90
2019-03-25T07:54:03.954Z,2.90
2019-03-25T07:55:03.925Z,3.50
2019-03-25T07:56:03.933Z,3.20
2019-03-25T07:57:03.908Z,3.00
2019-03-25T07:58:03.874Z,3.10
2019-03-25T07:59:03.867Z,3.00
2019-03-25T08:00:13.133Z,2.90
2019-03-25T08:01:04.846Z,3.10
2019-03-25T08:02:03.840Z,3.40
2019-03-25T08:03:03.827Z,2.70
2019-03-25T08:04:03.856Z,3.10
2019-03-25T08:05:03.808Z,2.80
2019-03-25T08:06:03.817Z,2.40
2019-03-25T08:07:03.786Z,2.80
2019-03-25T08:08:03.807Z,2.60
2019-03-25T08:09:04.255Z,2.30
2019-03-25T08:10:03.762Z,2.70
2019-03-25T08:11:03.771Z,2.70
2019-03-25T08:12:03.750Z,2.70
2019-03-25T08:13:04.758Z,2.50
2019-03-25T08:14:03.744Z,2.60
2019-03-25T08:15:03.727Z,2.50
2019-03-25T08:16:03.694Z,2.60
2019-03-25T08:17:03.670Z,2.30
2019-03-25T08:18:03.663Z,2.40
2019-03-25T08:19:03.681Z,2.50
2019-03-25T08:20:03.637Z,2.80
2019-03-25T08:21:03.624Z,2.30
2019-03-25T08:22:03.607Z,2.30
2019-03-25T08:23:03.594Z,2.50
2019-03-25T08:24:03.592Z,2.40
2019-03-25T08:25:03.600Z,2.40
2019-03-25T08:26:03.592Z,2.40
2019-03-25T08:27:03.567Z,2.30
2019-03-25T08:28:03.559Z,2.60
2019-03-25T08:29:03.546Z,4.30
2019-03-25T08:30:03.523Z,2.30
2019-03-25T08:31:03.537Z,2.40
2019-03-25T08:32:03.525Z,2.30
2019-03-25T08:33:03.506Z,2.40
2019-03-25T08:34:03.474Z,2.70
2019-03-25T08:35:03.464Z,2.20
2019-03-25T08:36:03.478Z,2.60
2019-03-25T08:37:04.491Z,2.30
2019-03-25T08:38:03.464Z,2.60
2019-03-25T08:39:03.425Z,2.20
2019-03-25T08:40:03.418Z,2.60
2019-03-25T08:41:03.412Z,2.40
2019-03-25T08:42:03.381Z,2.30
2019-03-25T08:43:03.413Z,2.50
2019-03-25T08:44:03.378Z,2.40
2019-03-25T08:45:03.347Z,2.80
2019-03-25T08:46:03.362Z,2.70
2019-03-25T08:47:03.369Z,1.90
2019-03-25T08:48:03.326Z,2.40
2019-03-25T08:49:03.332Z,2.40
2019-03-25T08:50:03.315Z,2.30
2019-03-25T08:51:03.300Z,2.10
2019-03-25T08:52:03.289Z,2.50
2019-03-25T08:53:03.302Z,2.50
2019-03-25T08:54:03.261Z,2.60
2019-03-25T08:55:03.252Z,2.80
2019-03-25T08:56:03.244Z,2.60
2019-03-25T08:57:03.233Z,2.30
2019-03-25T08:58:12.012Z,1.80
2019-03-25T08:59:04.213Z,2.10
2019-03-25T09:00:03.239Z,2.40
2019-03-25T09:01:03.193Z,2.50
2019-03-25T09:02:03.167Z,2.50
2019-03-25T09:03:03.162Z,2.20
2019-03-25T09:04:03.155Z,2.40
2019-03-25T09:05:03.149Z,2.20
2019-03-25T09:06:03.152Z,2.70
2019-03-25T09:07:03.208Z,2.20
2019-03-25T09:08:03.108Z,2.20
2019-03-25T09:09:03.096Z,2.00
2019-03-25T09:10:03.095Z,1.90
2019-03-25T09:11:03.102Z,2.50
2019-03-25T09:12:03.071Z,2.70
2019-03-25T09:13:03.078Z,2.10
2019-03-25T09:14:03.043Z,2.30
2019-03-25T09:15:03.042Z,1.90
2019-03-25T09:16:03.014Z,2.10
2019-03-25T09:17:03.008Z,2.10
2019-03-25T09:18:03.022Z,2.10
2019-03-25T09:19:02.997Z,2.00
2019-03-25T09:20:02.973Z,2.00
2019-03-25T09:21:02.976Z,2.10
2019-03-25T09:22:02.964Z,1.80
2019-03-25T09:23:02.986Z,2.00
2019-03-25T09:24:02.957Z,1.70
2019-03-25T09:25:02.932Z,1.90
2019-03-25T09:26:02.907Z,2.30
2019-03-25T09:27:02.911Z,1.80
2019-03-25T09:28:02.879Z,1.80
2019-03-25T09:29:02.907Z,1.70
2019-03-25T09:30:03.671Z,1.90
2019-03-25T09:31:02.864Z,2.10
2019-03-25T09:32:02.851Z,1.90
2019-03-25T09:33:02.857Z,1.90
2019-03-25T09:34:02.819Z,2.10
2019-03-25T09:35:02.840Z,2.10
2019-03-25T09:36:02.930Z,2.10
2019-03-25T09:37:02.800Z,2.20
2019-03-25T09:38:02.775Z,1.70
2019-03-25T09:39:02.779Z,2.00
2019-03-25T09:40:02.777Z,1.70
2019-03-25T09:41:02.742Z,2.00
2019-03-25T09:42:02.737Z,1.80
2019-03-25T09:43:02.747Z,2.20
2019-03-25T09:44:02.735Z,1.90
2019-03-25T09:45:02.749Z,1.90
2019-03-25T09:46:02.691Z,1.80
2019-03-25T09:47:02.687Z,1.40
2019-03-25T09:48:02.674Z,1.30
2019-03-25T09:49:02.662Z,1.50
2019-03-25T09:50:02.657Z,1.50
2019-03-25T09:51:02.665Z,1.60
2019-03-25T09:52:02.616Z,1.80
2019-03-25T09:53:02.611Z,1.10
2019-03-25T09:54:02.611Z,1.20
2019-03-25T09:55:02.597Z,1.50
2019-03-25T09:56:02.612Z,1.30
2019-03-25T09:57:02.593Z,1.30
2019-03-25T09:58:02.559Z,1.20
2019-03-25T09:59:02.550Z,1.00
2019-03-25T10:00:02.549Z,1.10
2019-03-25T10:01:02.527Z,1.20
2019-03-25T10:02:02.552Z,1.30
2019-03-25T10:03:02.530Z,1.40
2019-03-25T10:04:02.491Z,1.10
2019-03-25T10:05:02.489Z,1.60
2019-03-25T10:06:02.468Z,1.60
2019-03-25T10:07:02.458Z,1.40
2019-03-25T10:08:02.476Z,1.60
2019-03-25T10:09:02.441Z,1.20
2019-03-25T10:10:02.418Z,1.30
2019-03-25T10:11:02.413Z,1.50
2019-03-25T10:12:02.409Z,1.30
2019-03-25T10:13:02.407Z,1.10
2019-03-25T10:14:02.393Z,1.40
2019-03-25T10:15:02.404Z,1.30
2019-03-25T10:16:02.365Z,1.40
2019-03-25T10:17:02.362Z,1.10
2019-03-25T10:18:02.342Z,1.20
2019-03-25T10:19:02.330Z,1.30
2019-03-25T10:20:02.514Z,1.50
2019-03-25T10:21:02.317Z,1.20
2019-03-25T10:22:02.476Z,1.60
2019-03-25T10:23:02.318Z,1.60
2019-03-25T10:24:02.842Z,1.50
2019-03-25T10:25:02.255Z,1.40
2019-03-25T10:26:02.256Z,1.80
2019-03-25T10:27:02.278Z,1.50
2019-03-25T10:28:02.242Z,1.00
2019-03-25T10:29:02.222Z,1.10
2019-03-25T10:30:02.215Z,1.30
2019-03-25T10:31:02.195Z,1.60
2019-03-25T10:32:02.175Z,1.80
2019-03-25T10:33:02.205Z,1.60
2019-03-25T10:34:02.171Z,1.30
2019-03-25T10:35:02.164Z,1.50
2019-03-25T10:36:02.157Z,1.10
2019-03-25T10:37:02.147Z,1.60
2019-03-25T10:38:02.148Z,1.40
2019-03-25T10:39:02.177Z,1.60
2019-03-25T10:40:02.107Z,1.90
2019-03-25T10:41:02.101Z,4.10
2019-03-25T10:42:02.072Z,3.20
2019-03-25T10:43:02.063Z,1.60
2019-03-25T10:44:02.090Z,1.80
2019-03-25T10:45:02.067Z,1.70
2019-03-25T10:46:02.032Z,1.60
2019-03-25T10:47:02.037Z,1.50
2019-03-25T10:48:02.022Z,1.70
2019-03-25T10:49:01.998Z,1.30
2019-03-25T10:50:02.003Z,1.50
2019-03-25T10:51:01.971Z,1.50
2019-03-25T10:52:01.967Z,1.50
2019-03-25T10:53:01.948Z,1.30
2019-03-25T10:54:01.957Z,1.40
2019-03-25T10:55:01.957Z,1.40
2019-03-25T10:56:01.920Z,1.50
2019-03-25T10:57:01.897Z,1.10
2019-03-25T10:58:01.901Z,1.40
2019-03-25T10:59:01.894Z,2.10
2019-03-25T11:00:01.889Z,1.40
2019-03-25T11:01:01.865Z,1.60
2019-03-25T11:02:01.905Z,1.40
2019-03-25T11:03:01.843Z,1.40
2019-03-25T11:04:01.820Z,1.60
2019-03-25T11:05:01.805Z,1.50
2019-03-25T11:06:01.820Z,1.70
2019-03-25T11:07:01.908Z,1.40
2019-03-25T11:08:01.840Z,1.60
2019-03-25T11:09:01.778Z,1.30
2019-03-25T11:10:01.765Z,1.60
2019-03-25T11:11:01.751Z,1.50
2019-03-25T11:12:01.739Z,1.60
2019-03-25T11:13:01.738Z,1.80
2019-03-25T11:14:01.737Z,1.60
2019-03-25T11:15:01.714Z,1.90
2019-03-25T11:16:01.736Z,1.90
2019-03-25T11:17:01.678Z,1.70
2019-03-25T11:18:01.690Z,1.90
2019-03-25T11:19:01.696Z,1.70
2019-03-25T11:20:01.660Z,1.50
2019-03-25T11:21:01.685Z,1.70
2019-03-25T11:22:01.631Z,1.80
2019-03-25T11:23:01.614Z,1.30
2019-03-25T11:24:01.613Z,1.30
2019-03-25T11:25:01.594Z,1.20
2019-03-25T11:26:01.590Z,1.50
2019-03-25T11:27:01.596Z,1.30
2019-03-25T11:28:01.563Z,1.60
2019-03-25T11:29:08.304Z,1.50
2019-03-25T11:30:02.547Z,1.70
2019-03-25T11:31:01.548Z,1.50
2019-03-25T11:32:01.545Z,1.90
2019-03-25T11:33:01.520Z,1.90
2019-03-25T11:34:01.506Z,1.70
2019-03-25T11:35:01.491Z,1.30
2019-03-25T11:36:02.780Z,1.70
2019-03-25T11:37:01.492Z,3.60
2019-03-25T11:38:01.460Z,2.60
2019-03-25T11:39:01.476Z,1.60
2019-03-25T11:40:01.441Z,3.80
2019-03-25T11:41:01.423Z,2.60
2019-03-25T11:42:01.410Z,1.20
2019-03-25T11:43:01.421Z,3.20
2019-03-25T11:44:01.402Z,2.00
2019-03-25T11:45:01.381Z,2.30
2019-03-25T11:46:01.354Z,1.20
2019-03-25T11:47:01.350Z,1.80
2019-03-25T11:48:01.343Z,1.30
2019-03-25T11:49:01.351Z,1.10
2019-03-25T11:50:01.337Z,1.60
2019-03-25T11:51:01.329Z,1.20
2019-03-25T11:52:01.305Z,1.60
2019-03-25T11:53:01.299Z,1.20
2019-03-25T11:54:01.303Z,1.30
2019-03-25T11:55:01.269Z,1.10
2019-03-25T11:56:01.260Z,1.40
2019-03-25T11:57:01.249Z,1.00
2019-03-25T11:58:01.260Z,1.30
2019-03-25T11:59:03.001Z,1.20
2019-03-25T12:00:01.243Z,1.30
2019-03-25T12:01:01.192Z,1.50
2019-03-25T12:02:01.198Z,1.70
2019-03-25T12:03:01.200Z,1.10
2019-03-25T12:04:01.180Z,1.20
2019-03-25T12:05:01.191Z,1.10
2019-03-25T12:06:01.153Z,1.30
2019-03-25T12:07:01.159Z,1.10
2019-03-25T12:08:01.134Z,1.10
2019-03-25T12:09:01.131Z,1.10
2019-03-25T12:10:01.110Z,1.30
2019-03-25T12:11:01.091Z,1.40
2019-03-25T12:12:01.117Z,1.20
2019-03-25T12:13:01.080Z,1.10
2019-03-25T12:14:01.076Z,1.10
2019-03-25T12:15:01.753Z,1.30
2019-03-25T12:16:01.051Z,1.30
2019-03-25T12:17:01.027Z,1.40
2019-03-25T12:18:01.055Z,1.40
2019-03-25T12:19:01.021Z,1.20
2019-03-25T12:20:01.006Z,1.10
2019-03-25T12:21:00.991Z,1.40
2019-03-25T12:22:01.019Z,1.40
2019-03-25T12:23:00.998Z,1.10
2019-03-25T12:24:00.966Z,1.30
2019-03-25T12:25:00.947Z,1.00
2019-03-25T12:26:00.963Z,1.10
2019-03-25T12:27:00.933Z,1.10
2019-03-25T12:28:00.926Z,1.40
2019-03-25T12:29:00.951Z,1.30
2019-03-25T12:30:00.895Z,1.20
2019-03-25T12:31:00.885Z,1.10
2019-03-25T12:32:00.873Z,1.40
2019-03-25T12:33:04.301Z,1.20
2019-03-25T12:34:00.841Z,1.10
2019-03-25T12:35:00.851Z,0.80
2019-03-25T12:36:00.830Z,1.10
2019-03-25T12:37:00.811Z,1.00
2019-03-25T12:38:00.812Z,1.10
2019-03-25T12:39:00.803Z,0.90
2019-03-25T12:40:00.813Z,0.90
2019-03-25T12:41:00.782Z,0.90
2019-03-25T12:42:00.770Z,1.10
2019-03-25T12:43:00.746Z,1.10
2019-03-25T12:44:00.736Z,0.90
2019-03-25T12:45:00.771Z,0.60
2019-03-25T12:46:00.725Z,0.90
2019-03-25T12:47:00.710Z,0.70
2019-03-25T12:48:00.688Z,0.80
2019-03-25T12:49:00.680Z,1.30
2019-03-25T12:50:00.705Z,1.10
2019-03-25T12:51:00.659Z,1.00
2019-03-25T12:52:00.663Z,0.70
2019-03-25T12:53:00.647Z,0.90
2019-03-25T12:54:00.628Z,0.70
2019-03-25T12:55:00.627Z,0.70
2019-03-25T12:56:00.622Z,0.90
2019-03-25T12:57:00.595Z,1.10
2019-03-25T12:58:00.588Z,0.70
2019-03-25T12:59:00.575Z,0.80
2019-03-25T13:00:00.609Z,0.90
2019-03-25T13:01:00.556Z,1.00
2019-03-25T13:02:00.541Z,0.80
2019-03-25T13:03:00.522Z,0.90
2019-03-25T13:04:00.519Z,1.00
2019-03-25T13:05:00.540Z,0.70
2019-03-25T13:06:00.576Z,0.90
2019-03-25T13:07:00.479Z,0.70
2019-03-25T13:08:00.476Z,0.90
2019-03-25T13:09:00.475Z,1.10
2019-03-25T13:10:00.465Z,0.70
2019-03-25T13:11:00.447Z,1.10
2019-03-25T13:12:00.457Z,1.10
2019-03-25T13:13:00.423Z,0.90
2019-03-25T13:14:00.409Z,1.20
2019-03-25T13:15:00.400Z,1.00
2019-03-25T13:16:00.384Z,1.10
2019-03-25T13:17:00.394Z,0.90
2019-03-25T13:18:00.373Z,0.90